createdAt,value
2022-09-15T00:01:26.912Z,22.30
2022-09-15T00:03:55.321Z,22.30
2022-09-15T00:06:22.362Z,22.30
2022-09-15T00:08:49.452Z,22.20
2022-09-15T00:11:19.637Z,22.20
2022-09-15T00:13:46.789Z,22.20
2022-09-15T00:16:23.309Z,22.20
2022-09-15T00:18:50.860Z,22.20
2022-09-15T00:21:19.758Z,22.20
2022-09-15T00:23:47.499Z,22.10
2022-09-15T00:26:18.985Z,22.20
2022-09-15T00:28:46.398Z,22.20
2022-09-15T00:31:14.891Z,22.10
2022-09-15T00:33:42.299Z,22.10
2022-09-15T00:36:14.162Z,22.10
2022-09-15T00:38:41.593Z,22.10
2022-09-15T00:41:10.295Z,22.10
2022-09-15T00:43:43.472Z,22.00
2022-09-15T00:46:11.198Z,22.00
2022-09-15T00:48:40.431Z,22.00
2022-09-15T00:51:08.461Z,22.00
2022-09-15T00:53:35.711Z,22.00
2022-09-15T00:56:03.177Z,21.90
2022-09-15T00:58:32.428Z,21.90
2022-09-15T01:01:01.021Z,21.90
2022-09-15T01:03:30.490Z,21.90
2022-09-15T01:06:04.816Z,21.90
2022-09-15T01:08:34.837Z,21.80
2022-09-15T01:11:02.707Z,21.80
2022-09-15T01:13:30.120Z,21.70
2022-09-15T01:16:11.393Z,21.70
2022-09-15T01:18:53.802Z,21.60
2022-09-15T01:21:39.646Z,21.60
2022-09-15T01:24:15.947Z,21.50
2022-09-15T01:26:42.968Z,21.50
2022-09-15T01:29:25.483Z,21.50
2022-09-15T01:32:15.668Z,21.50
2022-09-15T01:34:50.945Z,21.50
2022-09-15T01:37:21.066Z,21.60
2022-09-15T01:39:50.576Z,21.60
2022-09-15T01:42:18.533Z,21.60
2022-09-15T01:44:49.166Z,21.70
2022-09-15T01:47:17.922Z,21.60
2022-09-15T01:49:50.273Z,21.60
2022-09-15T01:52:22.178Z,21.70
2022-09-15T01:54:53.753Z,21.60
2022-09-15T01:57:21.783Z,21.60
2022-09-15T01:59:54.027Z,21.70
2022-09-15T02:02:24.351Z,21.70
2022-09-15T02:04:58.630Z,21.70
2022-09-15T02:07:47.320Z,21.70
2022-09-15T02:10:17.080Z,21.60
2022-09-15T02:12:50.703Z,21.60
2022-09-15T02:15:23.473Z,21.60
2022-09-15T02:17:54.165Z,21.60
2022-09-15T02:20:25.336Z,21.60
2022-09-15T02:22:57.140Z,21.60
2022-09-15T02:25:30.638Z,21.50
2022-09-15T02:28:01.091Z,21.60
2022-09-15T02:30:29.496Z,21.60
2022-09-15T02:32:58.255Z,21.60
2022-09-15T02:35:26.825Z,21.60
2022-09-15T02:37:55.777Z,21.50
2022-09-15T02:40:23.366Z,21.50
2022-09-15T02:42:55.819Z,21.50
2022-09-15T02:45:24.686Z,21.50
2022-09-15T02:47:51.766Z,21.40
2022-09-15T02:50:20.379Z,21.40
2022-09-15T02:52:47.401Z,21.40
2022-09-15T02:55:15.762Z,21.50
2022-09-15T02:57:42.824Z,21.40
2022-09-15T03:00:13.346Z,21.30
2022-09-15T03:02:41.850Z,21.30
2022-09-15T03:05:09.216Z,21.30
2022-09-15T03:07:38.036Z,21.30
2022-09-15T03:10:05.917Z,21.20
2022-09-15T03:12:40.020Z,21.10
2022-09-15T03:15:08.312Z,21.10
2022-09-15T03:17:36.209Z,21.00
2022-09-15T03:20:04.624Z,21.00
2022-09-15T03:22:31.697Z,21.00
2022-09-15T03:24:58.760Z,21.10
2022-09-15T03:27:25.808Z,21.00
2022-09-15T03:29:53.237Z,21.00
2022-09-15T03:32:20.277Z,21.10
2022-09-15T03:34:47.320Z,21.00
2022-09-15T03:37:14.504Z,21.10
2022-09-15T03:39:41.547Z,21.10
2022-09-15T03:42:08.888Z,21.10
2022-09-15T03:44:35.991Z,21.10
2022-09-15T03:47:03.441Z,21.10
2022-09-15T03:49:30.620Z,21.10
2022-09-15T03:51:58.743Z,21.10
2022-09-15T03:54:26.081Z,21.10
2022-09-15T03:56:53.328Z,21.10
2022-09-15T03:59:20.789Z,21.10
2022-09-15T04:01:48.338Z,21.10
2022-09-15T04:04:15.631Z,21.00
2022-09-15T04:06:42.830Z,21.00
2022-09-15T04:09:10.290Z,21.00
2022-09-15T04:11:38.148Z,21.00
2022-09-15T04:14:05.226Z,21.10
2022-09-15T04:16:32.421Z,21.10
2022-09-15T04:18:59.683Z,21.10
2022-09-15T04:21:26.787Z,21.00
2022-09-15T04:23:54.152Z,21.00
2022-09-15T04:26:22.852Z,21.00
2022-09-15T04:28:49.912Z,21.10
2022-09-15T04:31:17.877Z,21.10
2022-09-15T04:33:45.906Z,21.10
2022-09-15T04:36:17.744Z,20.90
2022-09-15T04:38:45.699Z,20.90
2022-09-15T04:41:14.166Z,20.90
2022-09-15T04:43:41.876Z,21.00
2022-09-15T04:46:09.367Z,21.00
2022-09-15T04:48:37.694Z,21.00
2022-09-15T04:51:05.934Z,21.00
2022-09-15T04:53:33.258Z,21.00
2022-09-15T04:56:09.909Z,20.90
2022-09-15T04:58:41.549Z,20.80
2022-09-15T05:01:13.477Z,20.80
2022-09-15T05:03:41.781Z,20.80
2022-09-15T05:06:10.654Z,20.70
2022-09-15T05:08:38.470Z,20.70
2022-09-15T05:11:10.867Z,20.70
2022-09-15T05:13:38.528Z,20.60
2022-09-15T05:16:06.963Z,20.60
2022-09-15T05:18:35.805Z,20.60
2022-09-15T05:21:03.482Z,20.60
2022-09-15T05:23:30.957Z,20.60
2022-09-15T05:25:58.951Z,20.70
2022-09-15T05:28:26.385Z,20.80
2022-09-15T05:30:54.252Z,20.80
2022-09-15T05:33:22.760Z,20.90
2022-09-15T05:35:57.546Z,20.90
2022-09-15T05:38:25.241Z,21.00
2022-09-15T05:40:52.373Z,21.00
2022-09-15T05:43:19.470Z,21.10
2022-09-15T05:45:54.125Z,21.10
2022-09-15T05:48:21.220Z,21.10
2022-09-15T05:50:49.414Z,21.20
2022-09-15T05:53:18.709Z,21.30
2022-09-15T05:55:45.762Z,21.40
2022-09-15T05:58:13.340Z,21.40
2022-09-15T06:00:41.487Z,21.50
2022-09-15T06:03:14.464Z,21.50
2022-09-15T06:05:41.944Z,21.60
2022-09-15T06:08:09.438Z,21.70
2022-09-15T06:10:36.754Z,21.80
2022-09-15T06:13:03.852Z,21.90
2022-09-15T06:15:31.668Z,21.90
2022-09-15T06:17:58.819Z,21.80
2022-09-15T06:20:25.976Z,21.80
2022-09-15T06:22:56.728Z,21.80
2022-09-15T06:25:24.052Z,21.80
2022-09-15T06:27:51.184Z,21.80
2022-09-15T06:30:18.230Z,21.80
2022-09-15T06:32:48.284Z,21.90
2022-09-15T06:35:15.728Z,21.90
2022-09-15T06:37:42.788Z,21.90
2022-09-15T06:40:10.231Z,22.00
2022-09-15T06:42:37.388Z,22.00
2022-09-15T06:45:04.647Z,22.10
2022-09-15T06:47:34.086Z,22.10
2022-09-15T06:50:01.371Z,22.10
2022-09-15T06:52:28.620Z,22.10
2022-09-15T06:54:55.788Z,22.10
2022-09-15T06:57:22.841Z,22.20
2022-09-15T06:59:49.879Z,22.40
2022-09-15T07:02:19.164Z,22.70
2022-09-15T07:04:46.485Z,22.90
2022-09-15T07:07:13.532Z,23.10
2022-09-15T07:09:41.462Z,23.20
2022-09-15T07:12:09.078Z,23.50
2022-09-15T07:14:39.351Z,23.70
2022-09-15T07:17:06.427Z,23.90
2022-09-15T07:19:33.541Z,23.90
2022-09-15T07:22:05.919Z,24.00
2022-09-15T07:24:33.021Z,24.10
2022-09-15T07:27:03.443Z,24.10
2022-09-15T07:29:32.191Z,24.20
2022-09-15T07:32:02.000Z,24.30
2022-09-15T07:34:29.142Z,24.40
2022-09-15T07:36:56.187Z,24.40
2022-09-15T07:39:23.364Z,24.50
2022-09-15T07:41:50.734Z,24.60
2022-09-15T07:44:17.852Z,24.60
2022-09-15T07:46:44.993Z,24.70
2022-09-15T07:49:12.217Z,24.70
2022-09-15T07:51:39.255Z,24.70
2022-09-15T07:54:07.156Z,24.70
2022-09-15T07:56:34.296Z,24.80
2022-09-15T07:59:01.527Z,25.10
2022-09-15T08:01:28.671Z,25.20
2022-09-15T08:03:56.103Z,25.20
2022-09-15T08:06:24.545Z,25.10
2022-09-15T08:08:56.348Z,25.30
2022-09-15T08:11:26.603Z,25.30
2022-09-15T08:13:53.675Z,25.50
2022-09-15T08:16:22.050Z,26.00
2022-09-15T08:18:49.748Z,26.50
2022-09-15T08:21:20.066Z,26.80
2022-09-15T08:23:51.452Z,27.20
2022-09-15T08:26:18.656Z,27.60
2022-09-15T08:28:53.690Z,28.00
2022-09-15T08:31:21.082Z,28.50
2022-09-15T08:33:49.196Z,29.00
2022-09-15T08:36:16.843Z,29.20
2022-09-15T08:38:44.530Z,29.50
2022-09-15T08:41:18.292Z,29.70
2022-09-15T08:43:54.201Z,29.90
2022-09-15T08:46:24.089Z,30.20
2022-09-15T08:48:59.603Z,30.50
2022-09-15T08:51:41.269Z,30.70
2022-09-15T08:54:12.085Z,30.90
2022-09-15T08:57:05.328Z,30.80
2022-09-15T08:59:34.234Z,30.70
2022-09-15T09:02:07.335Z,30.60
2022-09-15T09:04:40.354Z,30.30
2022-09-15T09:07:26.461Z,30.70
2022-09-15T09:10:02.883Z,30.90
2022-09-15T09:12:29.926Z,31.20
2022-09-15T09:15:00.100Z,31.20
2022-09-15T09:17:45.987Z,31.40
2022-09-15T09:20:43.888Z,31.60
2022-09-15T09:23:13.793Z,31.50
2022-09-15T09:25:42.100Z,31.50
2022-09-15T09:28:34.066Z,31.60
2022-09-15T09:31:26.343Z,31.60
2022-09-15T09:34:00.474Z,31.80
2022-09-15T09:36:27.681Z,31.50
2022-09-15T09:38:55.697Z,31.20
2022-09-15T09:41:27.325Z,31.20
2022-09-15T09:43:55.800Z,31.10
2022-09-15T09:46:23.060Z,31.40
2022-09-15T09:48:56.569Z,31.40
2022-09-15T09:51:29.881Z,31.20
2022-09-15T09:54:03.669Z,31.20
2022-09-15T09:56:30.779Z,31.10
2022-09-15T09:58:59.155Z,30.80
2022-09-15T10:01:26.555Z,30.70
2022-09-15T10:04:17.167Z,31.00
2022-09-15T10:06:46.838Z,31.30
2022-09-15T10:09:18.121Z,31.60
2022-09-15T10:11:48.078Z,31.60
2022-09-15T10:14:31.729Z,31.50
2022-09-15T10:17:08.142Z,31.70
2022-09-15T10:20:01.028Z,31.70
2022-09-15T10:22:32.876Z,32.10
2022-09-15T10:25:01.099Z,32.20
2022-09-15T10:27:28.106Z,32.30
2022-09-15T10:29:55.808Z,32.20
2022-09-15T10:32:29.947Z,31.90
2022-09-15T10:35:18.360Z,31.80
2022-09-15T10:37:45.575Z,31.30
2022-09-15T10:40:28.227Z,31.00
2022-09-15T10:43:00.361Z,31.30
2022-09-15T10:45:27.578Z,31.30
2022-09-15T10:48:40.857Z,31.40
2022-09-15T10:51:17.656Z,31.40
2022-09-15T10:53:45.274Z,31.60
2022-09-15T10:56:20.955Z,31.60
2022-09-15T10:58:58.597Z,31.30
2022-09-15T11:01:28.719Z,30.90
2022-09-15T11:04:08.425Z,30.70
2022-09-15T11:06:47.216Z,30.70
2022-09-15T11:09:18.018Z,30.60
2022-09-15T11:12:05.348Z,30.60
2022-09-15T11:14:44.478Z,30.60
2022-09-15T11:17:30.464Z,30.70
2022-09-15T11:20:08.777Z,30.60
2022-09-15T11:22:49.613Z,30.30
2022-09-15T11:25:24.230Z,30.00
2022-09-15T11:27:51.279Z,29.90
2022-09-15T11:30:20.224Z,29.90
2022-09-15T11:32:52.901Z,30.00
2022-09-15T11:35:22.907Z,30.10
2022-09-15T11:37:51.653Z,30.30
2022-09-15T11:40:22.272Z,30.40
2022-09-15T11:42:53.201Z,30.60
2022-09-15T11:45:23.152Z,30.60
2022-09-15T11:47:54.204Z,30.60
2022-09-15T11:50:23.834Z,30.40
2022-09-15T11:52:51.099Z,30.50
2022-09-15T11:55:27.001Z,30.70
2022-09-15T11:57:57.291Z,30.70
2022-09-15T12:00:24.473Z,30.70
2022-09-15T12:02:56.606Z,30.60
2022-09-15T12:05:31.873Z,30.60
2022-09-15T12:08:04.920Z,30.70
2022-09-15T12:10:36.973Z,30.80
2022-09-15T12:13:05.161Z,30.90
2022-09-15T12:15:32.472Z,30.90
2022-09-15T12:18:06.570Z,30.80
2022-09-15T12:20:43.537Z,30.90
2022-09-15T12:23:18.939Z,31.00
2022-09-15T12:26:05.097Z,31.00
2022-09-15T12:28:40.214Z,31.00
2022-09-15T12:31:13.214Z,31.00
2022-09-15T12:33:44.207Z,31.00
2022-09-15T12:36:29.527Z,30.80
2022-09-15T12:38:56.735Z,30.80
2022-09-15T12:41:23.941Z,30.90
2022-09-15T12:44:02.996Z,31.00
2022-09-15T12:46:30.240Z,31.00
2022-09-15T12:48:59.573Z,30.90
2022-09-15T12:51:28.155Z,30.70
2022-09-15T12:54:00.656Z,30.80
2022-09-15T12:56:29.145Z,30.80
2022-09-15T12:58:56.257Z,30.80
2022-09-15T13:01:23.485Z,30.70
2022-09-15T13:03:50.857Z,30.80
2022-09-15T13:06:33.215Z,30.80
2022-09-15T13:09:06.095Z,30.80
2022-09-15T13:11:34.381Z,30.80
2022-09-15T13:14:07.716Z,31.00
2022-09-15T13:16:39.284Z,30.90
2022-09-15T13:19:20.770Z,31.10
2022-09-15T13:21:52.117Z,31.20
2022-09-15T13:24:25.099Z,31.20
2022-09-15T13:26:55.751Z,31.00
2022-09-15T13:29:24.279Z,31.00
2022-09-15T13:31:59.564Z,31.00
2022-09-15T13:40:37.215Z,31.20
2022-09-15T13:43:28.580Z,31.10
2022-09-15T13:46:21.759Z,31.00
2022-09-15T13:49:07.785Z,30.80
2022-09-15T13:51:59.700Z,30.60
2022-09-15T13:54:27.217Z,30.50
2022-09-15T13:56:58.714Z,30.50
2022-09-15T13:59:28.443Z,30.60
2022-09-15T14:01:56.880Z,30.70
2022-09-15T14:04:25.161Z,30.60
2022-09-15T14:06:57.035Z,30.50
2022-09-15T14:09:27.210Z,30.50
2022-09-15T14:11:56.273Z,30.40
2022-09-15T14:14:29.755Z,30.50
2022-09-15T14:16:57.161Z,30.50
2022-09-15T14:19:24.246Z,30.40
2022-09-15T14:21:56.238Z,30.30
2022-09-15T14:24:26.938Z,30.30
2022-09-15T14:26:58.555Z,30.30
2022-09-15T14:29:27.065Z,30.20
2022-09-15T14:31:59.645Z,30.10
2022-09-15T14:34:29.940Z,30.00
2022-09-15T14:37:07.219Z,29.90
2022-09-15T14:39:37.277Z,29.80
2022-09-15T14:42:22.366Z,29.70
2022-09-15T14:47:38.923Z,29.50
2022-09-15T14:50:12.302Z,29.50
2022-09-15T14:52:40.956Z,29.50
2022-09-15T14:55:12.072Z,29.60
2022-09-15T14:57:41.584Z,29.60
2022-09-15T15:00:14.243Z,29.60
2022-09-15T15:02:51.407Z,29.50
2022-09-15T15:05:33.283Z,29.40
2022-09-15T15:08:01.568Z,29.10
2022-09-15T15:10:35.722Z,28.80
2022-09-15T15:13:08.104Z,28.50
2022-09-15T15:15:37.014Z,28.30
2022-09-15T15:18:05.314Z,28.10
2022-09-15T15:20:32.816Z,28.10
2022-09-15T15:23:09.910Z,28.00
2022-09-15T15:25:37.460Z,28.10
2022-09-15T15:28:07.639Z,28.20
2022-09-15T15:30:43.663Z,28.40
2022-09-15T15:33:21.047Z,28.50
2022-09-15T15:35:59.946Z,28.60
2022-09-15T15:38:27.035Z,28.60
2022-09-15T15:41:04.241Z,28.60
2022-09-15T15:43:31.740Z,28.50
2022-09-15T15:46:03.526Z,28.40
2022-09-15T15:48:37.385Z,28.30
2022-09-15T15:51:06.542Z,28.20
2022-09-15T15:53:34.479Z,28.20
2022-09-15T15:56:01.767Z,28.20
2022-09-15T15:58:28.864Z,28.10
2022-09-15T16:00:56.855Z,28.20
2022-09-15T16:03:25.624Z,28.10
2022-09-15T16:06:11.153Z,28.10
2022-09-15T16:08:39.787Z,28.00
2022-09-15T16:11:14.057Z,27.90
2022-09-15T16:14:26.155Z,27.90
2022-09-15T16:20:16.409Z,27.90
2022-09-15T16:22:44.392Z,27.80
2022-09-15T16:25:14.351Z,27.70
2022-09-15T16:27:41.607Z,27.70
2022-09-15T16:30:12.158Z,27.70
2022-09-15T16:32:42.630Z,27.60
2022-09-15T16:35:32.403Z,27.60
2022-09-15T16:37:59.447Z,27.50
2022-09-15T16:40:52.361Z,27.50
2022-09-15T16:43:21.546Z,27.60
2022-09-15T16:45:49.668Z,27.60
2022-09-15T16:48:17.177Z,27.50
2022-09-15T16:50:55.828Z,27.50
2022-09-15T16:53:34.714Z,27.40
2022-09-15T16:56:02.048Z,27.30
2022-09-15T16:58:29.348Z,27.30
2022-09-15T17:00:56.996Z,27.30
2022-09-15T17:03:30.572Z,27.30
2022-09-15T17:09:04.560Z,27.30
2022-09-15T17:11:57.055Z,27.30
2022-09-15T17:14:44.378Z,27.20
2022-09-15T17:17:26.309Z,27.20
2022-09-15T17:19:53.372Z,27.10
2022-09-15T17:22:20.475Z,27.10
2022-09-15T17:24:47.545Z,27.00
2022-09-15T17:27:15.829Z,27.00
2022-09-15T17:29:42.873Z,26.90
2022-09-15T17:32:09.979Z,26.80
2022-09-15T17:34:37.165Z,26.80
2022-09-15T17:37:06.700Z,26.70
2022-09-15T17:39:35.308Z,26.60
2022-09-15T17:44:32.159Z,26.50
2022-09-15T17:47:01.466Z,26.50
2022-09-15T17:49:28.465Z,26.40
2022-09-15T17:51:55.513Z,26.40
2022-09-15T17:54:23.299Z,26.30
2022-09-15T17:57:03.805Z,26.30
2022-09-15T17:59:30.883Z,26.20
2022-09-15T18:01:58.030Z,26.20
2022-09-15T18:04:25.111Z,26.10
2022-09-15T18:06:52.157Z,26.10
2022-09-15T18:09:19.233Z,26.10
2022-09-15T18:11:46.299Z,26.10
2022-09-15T18:14:13.396Z,26.00
2022-09-15T18:16:41.456Z,26.00
2022-09-15T18:19:08.533Z,25.90
2022-09-15T18:21:35.856Z,25.90
2022-09-15T18:24:02.981Z,25.90
2022-09-15T18:26:32.542Z,25.80
2022-09-15T18:28:59.859Z,25.80
2022-09-15T18:31:26.989Z,25.80
2022-09-15T18:33:54.151Z,25.70
2022-09-15T18:36:21.583Z,25.70
2022-09-15T18:38:48.702Z,25.70
2022-09-15T18:41:15.819Z,25.60
2022-09-15T18:43:49.797Z,25.60
2022-09-15T18:46:18.376Z,25.50
2022-09-15T18:48:45.990Z,25.40
2022-09-15T18:51:23.409Z,25.40
2022-09-15T18:53:54.221Z,25.40
2022-09-15T18:56:24.048Z,25.30
2022-09-15T18:59:22.438Z,25.30
2022-09-15T19:01:49.775Z,25.30
2022-09-15T19:04:18.194Z,25.30
2022-09-15T19:06:49.207Z,25.20
2022-09-15T19:09:16.303Z,25.20
2022-09-15T19:11:43.411Z,25.20
2022-09-15T19:14:10.466Z,25.20
2022-09-15T19:16:56.486Z,25.20
2022-09-15T19:19:24.561Z,25.10
2022-09-15T19:21:51.716Z,25.00
2022-09-15T19:24:19.266Z,25.10
2022-09-15T19:26:48.729Z,25.00
2022-09-15T19:29:16.224Z,25.10
2022-09-15T19:31:43.377Z,25.10
2022-09-15T19:34:10.434Z,25.00
2022-09-15T19:36:37.720Z,25.00
2022-09-15T19:39:04.844Z,25.10
2022-09-15T19:41:31.979Z,25.00
2022-09-15T19:44:00.727Z,25.00
2022-09-15T19:46:27.912Z,24.90
2022-09-15T19:48:55.285Z,24.90
2022-09-15T19:51:23.000Z,24.90
2022-09-15T19:53:52.823Z,24.90
2022-09-15T19:59:30.801Z,24.90
2022-09-15T20:01:59.816Z,24.80
2022-09-15T20:04:27.299Z,24.70
2022-09-15T20:06:54.715Z,24.70
2022-09-15T20:09:23.257Z,24.60
2022-09-15T20:11:50.343Z,24.50
2022-09-15T20:14:20.377Z,24.40
2022-09-15T20:16:47.486Z,24.40
2022-09-15T20:19:14.752Z,24.50
2022-09-15T20:21:50.825Z,24.40
2022-09-15T20:24:19.527Z,24.40
2022-09-15T20:26:46.656Z,24.40
2022-09-15T20:29:14.365Z,24.40
2022-09-15T20:31:41.596Z,24.30
2022-09-15T20:34:08.660Z,24.30
2022-09-15T20:36:36.750Z,24.30
2022-09-15T20:39:05.048Z,24.30
2022-09-15T20:41:35.526Z,24.30
2022-09-15T20:44:02.919Z,24.30
2022-09-15T20:46:31.283Z,24.30
2022-09-15T20:48:58.426Z,24.30
2022-09-15T20:51:26.799Z,24.40
2022-09-15T20:53:54.923Z,24.30
2022-09-15T20:56:25.285Z,24.40
2022-09-15T20:58:53.489Z,24.50
2022-09-15T21:01:22.230Z,24.60
2022-09-15T21:03:49.809Z,24.80
2022-09-15T21:06:18.332Z,25.00
2022-09-15T21:08:48.243Z,25.00
2022-09-15T21:11:16.206Z,25.00
2022-09-15T21:13:43.821Z,25.00
2022-09-15T21:16:13.483Z,25.00
2022-09-15T21:18:41.943Z,24.90
2022-09-15T21:21:19.124Z,24.80
2022-09-15T21:23:47.357Z,24.60
2022-09-15T21:26:17.034Z,24.20
2022-09-15T21:28:44.883Z,24.10
2022-09-15T21:31:18.995Z,24.10
2022-09-15T21:33:46.646Z,24.20
2022-09-15T21:36:15.187Z,24.10
2022-09-15T21:38:45.972Z,24.10
2022-09-15T21:41:14.184Z,24.10
2022-09-15T21:43:43.730Z,24.20
2022-09-15T21:46:12.738Z,24.20
2022-09-15T21:48:41.681Z,24.30
2022-09-15T21:51:10.416Z,24.40
2022-09-15T21:53:37.784Z,24.40
2022-09-15T21:56:06.653Z,24.40
2022-09-15T21:58:41.722Z,24.30
2022-09-15T22:01:13.127Z,24.30
2022-09-15T22:03:43.750Z,24.10
2022-09-15T22:06:13.000Z,23.90
2022-09-15T22:08:40.522Z,23.90
2022-09-15T22:11:08.235Z,23.90
2022-09-15T22:13:37.433Z,23.80
2022-09-15T22:16:07.518Z,23.50
2022-09-15T22:18:38.833Z,23.30
2022-09-15T22:21:15.443Z,23.00
2022-09-15T22:23:43.722Z,22.80
2022-09-15T22:26:27.325Z,22.70
2022-09-15T22:28:54.747Z,22.60
2022-09-15T22:31:22.624Z,22.60
2022-09-15T22:33:52.041Z,22.70
2022-09-15T22:36:22.215Z,22.80
2022-09-15T22:38:52.971Z,23.00
2022-09-15T22:41:25.749Z,23.20
2022-09-15T22:43:52.948Z,23.30
2022-09-15T22:46:20.904Z,23.50
2022-09-15T22:48:48.104Z,23.40
2022-09-15T22:51:15.579Z,23.40
2022-09-15T22:53:42.763Z,23.30
2022-09-15T22:56:11.089Z,23.20
2022-09-15T22:58:40.914Z,23.30
2022-09-15T23:01:12.409Z,23.20
2022-09-15T23:03:39.593Z,23.20
2022-09-15T23:06:07.681Z,23.20
2022-09-15T23:08:37.039Z,23.10
2022-09-15T23:11:08.634Z,23.00
2022-09-15T23:13:36.008Z,22.90
2022-09-15T23:16:03.462Z,22.90
2022-09-15T23:18:30.966Z,22.90
2022-09-15T23:20:59.500Z,22.90
2022-09-15T23:23:27.164Z,22.90
2022-09-15T23:25:54.478Z,23.00
2022-09-15T23:28:22.101Z,23.00
2022-09-15T23:30:56.472Z,22.90
2022-09-15T23:33:24.550Z,22.90
2022-09-15T23:35:51.887Z,22.90
2022-09-15T23:38:19.809Z,22.80
2022-09-15T23:40:49.573Z,22.80
2022-09-15T23:43:16.940Z,22.80
2022-09-15T23:45:45.674Z,22.70
2022-09-15T23:48:13.266Z,22.80
2022-09-15T23:50:40.767Z,22.80
2022-09-15T23:53:08.353Z,22.70
2022-09-15T23:55:35.677Z,22.50
2022-09-15T23:58:02.996Z,22.40
